Time;durP1;ratioP1;P1;durP2;ratioP2;P2;SDS_P1;SDS_P2;PMS_P1;PMS_P2;Temp;Humidity;BMP_temperature;BMP_pressure;BME280_temperature;BME280_humidity;BME280_pressure;Samples;Min_cycle;Max_cycle;Signal;HPM_P1;HPM_P2
2021/12/28 00:02:14;;;;;;;30.17;17.48;;;11.80;99.90;;;;;;5035607;28;20469;-93
2021/12/28 00:04:40;;;;;;;29.95;19.40;;;12.10;99.90;;;;;;5035531;28;20140;-92
2021/12/28 00:07:06;;;;;;;32.10;16.05;;;10.30;99.90;;;;;;5035503;28;20037;-92
2021/12/28 00:09:31;;;;;;;17.77;12.93;;;7.60;99.90;;;;;;5035451;28;20084;-92
2021/12/28 00:11:57;;;;;;;25.98;16.20;;;11.20;99.90;;;;;;5034082;28;20053;-92
2021/12/28 00:14:29;;;;;;;37.25;20.65;;;6.70;99.90;;;;;;5039297;28;20037;-92
2021/12/28 00:19:39;;;;;;;1092.75;74.28;;;9.70;99.90;;;;;;5072445;28;20409;-94
2021/12/28 00:22:05;;;;;;;50.75;25.45;;;7.00;99.90;;;;;;5039500;28;20033;-94
2021/12/28 00:24:31;;;;;;;40.65;19.83;;;9.60;99.90;;;;;;5039312;28;20053;-94
2021/12/28 00:26:59;;;;;;;72.30;30.20;;;9.50;99.90;;;;;;5039599;28;20048;-94
2021/12/28 00:29:25;;;;;;;83.20;30.75;;;8.30;99.90;;;;;;5039113;28;20820;-94
2021/12/28 00:31:51;;;;;;;92.18;31.25;;;7.60;99.90;;;;;;5039450;28;20037;-93
2021/12/28 00:34:16;;;;;;;58.65;25.23;;;9.00;99.90;;;;;;5039218;28;20040;-94
2021/12/28 00:36:42;;;;;;;112.82;36.22;;;8.80;99.90;;;;;;5039317;28;20086;-94
2021/12/28 00:39:08;;;;;;;149.70;38.40;;;10.50;99.90;;;;;;5038853;28;20049;-94
2021/12/28 00:41:33;;;;;;;150.10;32.53;;;11.50;99.90;;;;;;5038729;28;20048;-94
2021/12/28 00:43:59;;;;;;;87.30;30.60;;;10.00;99.90;;;;;;5038440;28;20479;-93
2021/12/28 00:46:25;;;;;;;63.40;23.90;;;12.20;99.90;;;;;;5038749;28;20052;-93
2021/12/28 00:48:50;;;;;;;38.05;18.33;;;8.70;99.90;;;;;;5038764;28;20045;-92
2021/12/28 00:51:16;;;;;;;102.57;32.95;;;9.30;99.90;;;;;;5038445;28;20041;-94
2021/12/28 00:53:42;;;;;;;65.28;23.30;;;10.80;99.90;;;;;;5038532;28;20045;-94
2021/12/28 00:56:08;;;;;;;93.68;29.63;;;9.40;99.90;;;;;;5038716;28;20408;-94
2021/12/28 00:58:33;;;;;;;52.67;22.70;;;7.80;99.90;;;;;;5039058;28;20496;-95
2021/12/28 01:00:59;;;;;;;126.85;30.98;;;10.20;99.90;;;;;;5038688;28;20051;-94
2021/12/28 01:03:25;;;;;;;55.10;21.77;;;9.80;99.90;;;;;;5038547;28;20048;-94
2021/12/28 01:05:51;;;;;;;36.28;17.08;;;9.30;99.90;;;;;;5038574;28;20041;-95
2021/12/28 01:08:18;;;;;;;66.70;24.05;;;10.50;99.90;;;;;;5038574;28;20076;-94
2021/12/28 01:10:49;;;;;;;32.42;19.92;;;10.20;99.90;;;;;;5038531;28;20400;-94
2021/12/28 01:13:16;;;;;;;72.88;24.52;;;7.00;99.90;;;;;;5037044;28;20061;-94
2021/12/28 01:15:42;;;;;;;199.77;36.78;;;8.30;99.90;;;;;;5038387;28;20041;-94
2021/12/28 01:18:09;;;;;;;269.25;42.65;;;9.50;99.90;;;;;;5038630;28;20033;-94
2021/12/28 01:20:35;;;;;;;65.38;22.30;;;10.90;99.90;;;;;;5038241;28;20045;-94
2021/12/28 01:23:01;;;;;;;71.05;25.08;;;9.90;99.90;;;;;;5037912;28;20455;-94
2021/12/28 01:25:27;;;;;;;124.35;29.80;;;10.50;99.90;;;;;;5038792;28;20072;-94
2021/12/28 01:27:53;;;;;;;60.97;21.10;;;10.10;99.90;;;;;;5038347;28;20041;-94
2021/12/28 01:30:20;;;;;;;88.03;25.75;;;8.90;99.90;;;;;;5038278;28;20041;-95
2021/12/28 01:32:47;;;;;;;118.07;29.98;;;12.60;99.90;;;;;;5038379;28;20045;-94
2021/12/28 01:35:14;;;;;;;221.95;38.28;;;8.50;99.90;;;;;;5038153;28;20441;-95
2021/12/28 01:37:41;;;;;;;137.55;31.45;;;10.70;99.90;;;;;;5038179;28;20051;-94
2021/12/28 01:40:10;;;;;;;220.32;37.05;;;8.20;99.90;;;;;;5038425;28;20041;-95
2021/12/28 01:43:03;;;;;;;404.35;50.13;;;10.50;99.90;;;;;;5037918;28;20048;-94
2021/12/28 01:45:34;;;;;;;95.15;22.67;;;9.70;99.90;;;;;;5038380;28;20044;-94
2021/12/28 01:48:00;;;;;;;45.00;18.13;;;10.40;99.90;;;;;;5038064;28;20053;-95
2021/12/28 01:50:26;;;;;;;162.60;28.73;;;7.80;99.90;;;;;;5036754;28;20127;-94
2021/12/28 01:52:52;;;;;;;65.43;21.65;;;6.90;99.90;;;;;;5037865;28;20044;-94
2021/12/28 01:55:20;;;;;;;140.93;28.15;;;11.00;99.90;;;;;;5037736;28;20051;-94
2021/12/28 01:57:45;;;;;;;175.85;30.25;;;7.60;99.90;;;;;;5037731;28;20507;-95
2021/12/28 02:00:13;;;;;;;89.68;24.42;;;9.80;99.90;;;;;;5037843;28;20123;-95
2021/12/28 02:02:39;;;;;;;130.65;32.05;;;10.40;99.90;;;;;;5054524;28;20084;-95
2021/12/28 02:05:05;;;;;;;139.10;29.50;;;10.40;99.90;;;;;;5037271;28;20504;-95
2021/12/28 02:07:31;;;;;;;147.93;29.83;;;7.30;99.90;;;;;;5037736;28;20083;-95
2021/12/28 02:09:57;;;;;;;134.00;31.35;;;10.60;99.90;;;;;;5037968;28;20078;-94
2021/12/28 02:12:23;;;;;;;143.85;24.00;;;9.00;99.90;;;;;;5033474;28;20069;-94
2021/12/28 02:14:48;;;;;;;275.70;36.40;;;12.20;99.90;;;;;;5038089;28;20382;-95
2021/12/28 02:17:14;;;;;;;190.73;32.33;;;11.30;99.90;;;;;;5054026;28;20044;-94
2021/12/28 02:19:41;;;;;;;294.70;40.50;;;11.00;99.90;;;;;;5037580;28;20513;-95
2021/12/28 02:22:08;;;;;;;217.25;34.45;;;7.40;99.90;;;;;;5037263;28;20052;-95
2021/12/28 02:24:34;;;;;;;50.97;19.30;;;10.30;99.90;;;;;;5037347;28;20049;-95
2021/12/28 02:26:59;;;;;;;88.15;23.00;;;10.80;99.90;;;;;;5037296;28;20044;-93
2021/12/28 02:29:25;;;;;;;77.40;23.40;;;10.30;99.90;;;;;;5037269;28;20409;-95
2021/12/28 02:31:55;;;;;;;297.83;39.67;;;7.90;99.90;;;;;;5037584;28;20044;-94
2021/12/28 02:34:24;;;;;;;136.55;24.92;;;9.40;99.90;;;;;;5037202;28;20076;-95
2021/12/28 02:36:50;;;;;;;156.32;33.13;;;10.50;99.90;;;;;;5037833;28;20049;-94
2021/12/28 02:39:16;;;;;;;65.03;20.08;;;8.20;99.90;;;;;;5038614;28;20045;-95
2021/12/28 02:41:42;;;;;;;43.65;19.58;;;10.70;99.90;;;;;;5038173;28;20048;-95
2021/12/28 02:44:08;;;;;;;111.35;28.70;;;7.60;99.90;;;;;;5037709;28;20048;-96
2021/12/28 02:46:34;;;;;;;107.43;27.23;;;7.10;99.90;;;;;;5038189;28;20087;-95
2021/12/28 02:49:01;;;;;;;145.35;28.50;;;10.90;99.90;;;;;;5037716;28;20041;-95
2021/12/28 02:51:27;;;;;;;281.50;37.63;;;12.60;99.90;;;;;;5037521;28;20401;-95
2021/12/28 02:53:53;;;;;;;117.38;25.73;;;12.50;99.90;;;;;;5037784;28;20041;-95
2021/12/28 02:56:20;;;;;;;241.82;35.17;;;7.10;99.90;;;;;;5037352;28;20102;-96
2021/12/28 02:58:50;;;;;;;228.55;39.28;;;12.80;99.90;;;;;;5036981;28;20049;-95
2021/12/28 03:01:23;;;;;;;76.75;20.05;;;12.00;99.90;;;;;;5038099;28;20045;-95
2021/12/28 03:03:53;;;;;;;103.03;28.80;;;10.30;99.90;;;;;;5037410;28;20040;-95
2021/12/28 03:06:22;;;;;;;260.17;39.67;;;10.50;99.90;;;;;;5037697;28;20428;-95
2021/12/28 03:08:53;;;;;;;111.63;29.65;;;7.70;99.90;;;;;;5037168;28;20454;-95
2021/12/28 03:11:20;;;;;;;112.97;27.50;;;10.60;99.90;;;;;;5037348;28;20507;-95
2021/12/28 03:13:50;;;;;;;54.80;19.98;;;10.70;99.90;;;;;;5035179;28;20049;-95
2021/12/28 03:16:17;;;;;;;63.28;19.40;;;7.20;99.90;;;;;;5053718;28;20049;-95
2021/12/28 03:18:44;;;;;;;113.10;31.58;;;7.10;99.90;;;;;;5037078;28;20044;-95
2021/12/28 03:21:14;;;;;;;120.95;30.40;;;12.00;99.90;;;;;;5037054;28;20596;-96
2021/12/28 03:23:41;;;;;;;114.97;30.33;;;7.50;99.90;;;;;;5036992;28;20631;-95
2021/12/28 03:26:08;;;;;;;110.75;30.45;;;10.40;99.90;;;;;;5037043;28;20041;-95
2021/12/28 03:28:38;;;;;;;60.28;22.10;;;8.60;99.90;;;;;;5036701;28;20045;-95
2021/12/28 03:31:07;;;;;;;161.18;36.70;;;9.30;99.90;;;;;;5036653;28;20052;-94
2021/12/28 03:33:35;;;;;;;97.70;27.35;;;10.50;99.90;;;;;;5036790;28;20393;-95
2021/12/28 03:36:02;;;;;;;87.30;26.90;;;7.50;99.90;;;;;;5036369;28;20061;-95
2021/12/28 03:38:27;;;;;;;41.88;16.20;;;8.00;99.90;;;;;;5036221;28;20544;-95
2021/12/28 03:40:54;;;;;;;60.85;23.20;;;9.40;99.90;;;;;;5036891;28;20182;-95
2021/12/28 03:43:21;;;;;;;60.95;22.67;;;9.60;99.90;;;;;;5036688;28;20045;-94
2021/12/28 03:45:48;;;;;;;72.22;22.85;;;10.70;99.90;;;;;;5038784;28;20048;-95
2021/12/28 03:48:14;;;;;;;98.40;30.92;;;9.50;99.90;;;;;;5040481;28;20075;-95
2021/12/28 03:50:40;;;;;;;48.13;20.13;;;12.50;99.90;;;;;;5040476;28;20045;-94
2021/12/28 03:53:07;;;;;;;45.40;20.08;;;12.30;99.90;;;;;;5040552;28;20080;-95
2021/12/28 03:55:34;;;;;;;77.15;24.40;;;10.60;99.90;;;;;;5040176;28;20382;-94
2021/12/28 03:58:00;;;;;;;88.45;28.40;;;8.10;99.90;;;;;;5040304;28;20131;-95
2021/12/28 04:00:29;;;;;;;81.53;27.33;;;9.20;99.90;;;;;;5039761;28;20568;-95
2021/12/28 04:02:55;;;;;;;65.63;24.08;;;8.20;99.90;;;;;;5039863;28;20057;-95
2021/12/28 04:05:21;;;;;;;63.47;22.08;;;10.90;99.90;;;;;;5039034;28;20086;-94
2021/12/28 04:07:47;;;;;;;54.30;22.98;;;7.50;99.90;;;;;;5039560;28;20131;-95
2021/12/28 04:10:15;;;;;;;48.92;17.42;;;7.10;99.90;;;;;;5040366;28;20429;-95
2021/12/28 04:12:42;;;;;;;80.38;27.95;;;10.80;99.90;;;;;;5039437;28;20145;-94
2021/12/28 04:15:11;;;;;;;60.90;22.58;;;10.90;99.90;;;;;;5039839;28;20131;-95
2021/12/28 04:17:38;;;;;;;58.22;22.23;;;12.40;99.90;;;;;;5039911;28;20051;-95
2021/12/28 04:20:07;;;;;;;55.05;20.02;;;7.80;99.90;;;;;;5040036;28;20056;-94
2021/12/28 04:22:32;;;;;;;58.78;20.50;;;7.30;99.90;;;;;;5039871;28;20125;-94
2021/12/28 04:24:58;;;;;;;100.20;29.70;;;10.80;99.90;;;;;;5039615;28;20065;-94
2021/12/28 04:27:24;;;;;;;70.38;23.98;;;9.40;99.90;;;;;;5039700;28;20091;-95
2021/12/28 04:29:50;;;;;;;36.70;18.25;;;10.10;99.90;;;;;;5039348;28;20418;-95
2021/12/28 04:32:15;;;;;;;67.03;22.10;;;10.30;99.90;;;;;;5039750;28;20056;-95
2021/12/28 04:34:42;;;;;;;66.78;24.80;;;11.70;99.90;;;;;;5039390;28;20052;-95
2021/12/28 04:37:07;;;;;;;46.47;19.38;;;7.70;99.90;;;;;;5039778;28;20087;-95
2021/12/28 04:39:33;;;;;;;52.55;21.95;;;9.90;99.90;;;;;;5039410;28;20045;-94
2021/12/28 04:41:59;;;;;;;65.97;27.00;;;8.70;99.90;;;;;;5040107;28;20041;-94
2021/12/28 04:44:25;;;;;;;72.88;26.55;;;7.50;99.90;;;;;;5039496;28;20098;-96
2021/12/28 04:46:54;;;;;;;97.45;29.63;;;7.20;99.90;;;;;;5039629;28;20035;-95
2021/12/28 04:49:22;;;;;;;96.47;28.58;;;9.70;99.90;;;;;;5039304;28;20051;-96
2021/12/28 04:51:48;;;;;;;56.75;21.38;;;9.20;99.90;;;;;;5039500;28;20171;-95
2021/12/28 04:54:15;;;;;;;53.42;21.63;;;7.30;99.90;;;;;;5039191;28;20484;-95
2021/12/28 04:56:41;;;;;;;88.18;28.67;;;10.70;99.90;;;;;;5038625;28;20076;-95
2021/12/28 04:59:07;;;;;;;99.50;28.85;;;7.70;99.90;;;;;;5038988;28;20102;-94
2021/12/28 05:01:34;;;;;;;57.63;23.13;;;7.10;99.90;;;;;;5039256;28;20053;-94
2021/12/28 05:03:59;;;;;;;85.45;27.50;;;7.20;99.90;;;;;;5039203;28;20056;-95
2021/12/28 05:06:25;;;;;;;58.25;23.10;;;9.20;99.90;;;;;;5039510;28;20041;-95
2021/12/28 05:08:51;;;;;;;52.55;21.80;;;7.10;99.90;;;;;;5038821;28;20179;-95
2021/12/28 05:11:17;;;;;;;63.78;26.67;;;8.60;99.90;;;;;;5038287;28;20139;-94
2021/12/28 05:13:44;;;;;;;53.97;22.50;;;6.90;99.90;;;;;;5038218;28;20057;-95
2021/12/28 05:16:14;;;;;;;41.70;17.70;;;10.50;99.90;;;;;;5055544;28;20045;-95
2021/12/28 05:18:39;;;;;;;48.05;20.30;;;8.70;99.90;;;;;;5038798;28;20049;-95
2021/12/28 05:21:05;;;;;;;28.40;13.13;;;12.60;99.90;;;;;;5038783;28;20056;-95
2021/12/28 05:23:31;;;;;;;28.33;15.00;;;7.20;99.90;;;;;;5038900;28;20037;-95
2021/12/28 05:25:57;;;;;;;31.42;15.50;;;10.80;99.90;;;;;;5038822;28;20052;-95
2021/12/28 05:28:26;;;;;;;45.00;19.90;;;11.40;99.90;;;;;;5039076;28;20103;-94
2021/12/28 05:30:52;;;;;;;52.05;21.60;;;7.40;99.90;;;;;;5038837;28;20045;-95
2021/12/28 05:33:18;;;;;;;29.17;13.13;;;8.30;99.90;;;;;;5038834;28;20052;-95
2021/12/28 05:35:44;;;;;;;31.13;15.82;;;7.30;99.90;;;;;;5038833;28;20045;-96
2021/12/28 05:38:12;;;;;;;29.73;14.93;;;8.90;99.90;;;;;;5038529;28;20091;-94
2021/12/28 05:40:38;;;;;;;28.50;13.85;;;8.20;99.90;;;;;;5038036;28;20044;-95
2021/12/28 05:43:05;;;;;;;28.42;13.13;;;10.50;99.90;;;;;;5038035;28;20045;-95
2021/12/28 05:45:31;;;;;;;35.03;15.70;;;7.00;99.90;;;;;;5038068;28;20045;-95
2021/12/28 05:47:57;;;;;;;25.55;10.98;;;8.90;99.90;;;;;;5038502;28;20041;-94
2021/12/28 05:50:22;;;;;;;33.05;14.60;;;10.70;99.90;;;;;;5038833;28;20123;-96
2021/12/28 05:52:48;;;;;;;24.95;13.75;;;7.80;99.90;;;;;;5038732;28;20603;-96
2021/12/28 05:55:14;;;;;;;37.15;15.95;;;9.70;99.90;;;;;;5038894;28;20048;-96
2021/12/28 05:57:40;;;;;;;34.92;15.20;;;13.10;99.90;;;;;;5038287;28;20136;-96
2021/12/28 06:00:08;;;;;;;25.48;12.70;;;9.90;99.90;;;;;;5038256;28;20052;-96
2021/12/28 06:02:34;;;;;;;29.75;14.00;;;7.40;99.90;;;;;;5038524;28;20055;-96
2021/12/28 06:04:59;;;;;;;38.17;15.30;;;11.10;99.90;;;;;;5038720;28;20574;-96
2021/12/28 06:07:27;;;;;;;32.38;16.08;;;7.60;99.90;;;;;;5038955;28;20041;-96
2021/12/28 06:09:55;;;;;;;51.10;19.20;;;11.10;99.90;;;;;;5037162;28;20049;-95
2021/12/28 06:12:21;;;;;;;24.58;11.45;;;9.00;99.90;;;;;;5037809;28;20041;-96
2021/12/28 06:14:47;;;;;;;35.28;14.93;;;7.70;99.90;;;;;;5038182;28;20071;-95
2021/12/28 06:17:12;;;;;;;30.92;13.27;;;8.30;99.90;;;;;;5038067;28;20048;-95
2021/12/28 06:19:38;;;;;;;39.45;15.20;;;7.30;99.90;;;;;;5037295;28;20041;-96
2021/12/28 06:22:04;;;;;;;33.10;13.52;;;9.10;99.90;;;;;;5037630;28;20045;-95
2021/12/28 06:24:33;;;;;;;27.70;12.13;;;7.40;99.90;;;;;;5037822;28;20139;-95
2021/12/28 06:26:59;;;;;;;33.80;12.23;;;7.60;99.90;;;;;;5037814;28;20048;-95
2021/12/28 06:29:25;;;;;;;40.20;17.23;;;10.50;99.90;;;;;;5038041;28;20044;-95
2021/12/28 06:31:51;;;;;;;30.88;12.57;;;10.70;99.90;;;;;;5037688;28;20037;-95
2021/12/28 06:34:17;;;;;;;39.33;15.38;;;10.20;99.90;;;;;;5037546;28;20033;-91
2021/12/28 06:36:43;;;;;;;24.85;10.80;;;7.30;99.90;;;;;;5036792;28;20105;-94
2021/12/28 06:39:10;;;;;;;22.20;11.70;;;9.00;99.90;;;;;;5038265;28;20132;-95
2021/12/28 06:41:38;;;;;;;17.00;9.70;;;10.00;99.90;;;;;;5053996;28;20048;-94
2021/12/28 06:44:06;;;;;;;31.25;14.02;;;7.10;99.90;;;;;;5037952;28;20052;-94
2021/12/28 06:46:32;;;;;;;27.77;11.82;;;7.20;99.90;;;;;;5054262;28;20049;-94
2021/12/28 06:48:58;;;;;;;32.10;13.55;;;8.90;99.90;;;;;;5040737;28;20122;-96
2021/12/28 06:51:24;;;;;;;26.60;10.07;;;10.70;99.90;;;;;;5038412;28;20049;-94
2021/12/28 06:53:50;;;;;;;25.27;9.85;;;10.70;99.90;;;;;;5038263;28;20139;-93
2021/12/28 06:56:16;;;;;;;38.47;13.90;;;8.20;99.90;;;;;;5038018;28;20405;-94
2021/12/28 06:58:42;;;;;;;27.33;11.45;;;10.60;99.90;;;;;;5037984;28;20049;-95
2021/12/28 07:01:08;;;;;;;19.50;10.15;;;8.40;99.90;;;;;;5038540;28;20045;-96
2021/12/28 07:03:35;;;;;;;16.08;8.10;;;11.70;99.90;;;;;;5038895;28;20386;-95
2021/12/28 07:06:03;;;;;;;36.67;13.68;;;10.30;99.90;;;;;;5038207;28;20085;-95
2021/12/28 07:08:29;;;;;;;19.90;8.60;;;8.10;99.90;;;;;;5038957;28;20037;-96
2021/12/28 07:10:55;;;;;;;29.48;10.32;;;7.30;99.90;;;;;;5038362;28;20059;-96
2021/12/28 07:13:24;;;;;;;29.08;11.55;;;6.50;99.90;;;;;;5038910;28;20060;-94
2021/12/28 07:15:53;;;;;;;31.35;13.18;;;6.40;99.90;;;;;;5037105;28;20049;-91
2021/12/28 07:18:19;;;;;;;19.27;9.20;;;10.60;99.90;;;;;;5053058;28;20153;-91
2021/12/28 07:20:45;;;;;;;23.90;9.70;;;10.80;99.90;;;;;;5035556;28;20182;-91
2021/12/28 07:23:11;;;;;;;21.98;9.13;;;7.70;99.90;;;;;;5036309;28;20045;-88
2021/12/28 07:25:38;;;;;;;17.48;8.82;;;8.70;99.90;;;;;;5051131;28;20559;-89
2021/12/28 07:28:04;;;;;;;21.10;9.23;;;9.60;99.90;;;;;;5033867;28;20033;-92
2021/12/28 07:30:30;;;;;;;20.73;8.50;;;;;;;;;;5036089;28;20045;-95
2021/12/28 07:32:56;;;;;;;23.40;9.93;;;9.00;99.90;;;;;;5035629;28;20041;-88
2021/12/28 07:35:22;;;;;;;20.65;8.55;;;10.80;99.90;;;;;;5051940;28;20037;-91
2021/12/28 07:37:52;;;;;;;18.92;7.45;;;12.20;99.90;;;;;;5035392;28;20056;-95
2021/12/28 07:40:19;;;;;;;28.55;9.40;;;12.40;99.90;;;;;;5052101;28;20493;-93
2021/12/28 07:42:44;;;;;;;22.02;10.65;;;8.50;99.90;;;;;;5035920;28;20045;-95
2021/12/28 07:45:12;;;;;;;20.70;9.35;;;10.10;99.90;;;;;;5036097;28;20123;-91
2021/12/28 07:47:38;;;;;;;23.38;9.43;;;7.80;99.90;;;;;;5035941;28;20186;-91
2021/12/28 07:50:07;;;;;;;15.02;7.45;;;10.70;99.90;;;;;;5035615;28;20421;-95
2021/12/28 07:52:32;;;;;;;25.00;10.73;;;10.30;99.90;;;;;;5035669;28;20067;-89
2021/12/28 07:54:58;;;;;;;14.15;7.70;;;11.10;99.90;;;;;;5035275;28;20049;-92
2021/12/28 07:57:24;;;;;;;20.85;8.52;;;9.90;99.90;;;;;;5052949;28;20033;-93
2021/12/28 07:59:49;;;;;;;20.38;8.52;;;8.50;99.90;;;;;;5035325;28;20049;-94
2021/12/28 08:02:15;;;;;;;27.00;8.63;;;8.10;99.90;;;;;;5036048;28;20144;-88
2021/12/28 08:04:41;;;;;;;18.05;8.80;;;10.80;99.90;;;;;;5051882;28;20056;-90
2021/12/28 08:07:06;;;;;;;19.33;9.18;;;8.80;99.90;;;;;;5051390;28;20048;-90
2021/12/28 08:09:32;;;;;;;19.63;8.73;;;9.50;99.90;;;;;;5035230;28;20052;-89
2021/12/28 08:11:58;;;;;;;22.02;10.38;;;7.70;99.90;;;;;;5035405;28;20049;-90
2021/12/28 08:14:26;;;;;;;28.20;10.85;;;8.70;99.90;;;;;;5049821;28;20385;-94
2021/12/28 08:16:52;;;;;;;18.20;7.63;;;9.60;99.90;;;;;;5056437;28;20467;-94
2021/12/28 08:19:18;;;;;;;25.25;9.60;;;9.40;99.90;;;;;;5055626;28;20044;-93
2021/12/28 08:21:45;;;;;;;17.35;7.65;;;12.50;99.90;;;;;;5056014;28;20041;-94
2021/12/28 08:24:11;;;;;;;28.42;8.95;;;8.40;99.90;;;;;;5055775;28;20045;-94
2021/12/28 08:27:28;;;;;;;19.20;7.72;;;7.20;99.90;;;;;;5056056;28;20048;-93
2021/12/28 08:29:59;;;;;;;25.25;9.32;;;10.00;99.90;;;;;;5055643;28;20136;-90
2021/12/28 08:32:24;;;;;;;13.20;5.50;;;7.30;99.90;;;;;;5072897;28;20049;-91
2021/12/28 08:34:50;;;;;;;42.70;11.45;;;11.30;99.90;;;;;;5057699;28;20044;-92
2021/12/28 08:37:16;;;;;;;24.38;8.63;;;10.40;99.90;;;;;;5075217;28;20037;-88
2021/12/28 08:39:42;;;;;;;26.90;9.70;;;8.30;99.90;;;;;;5075265;28;20037;-86
2021/12/28 08:42:08;;;;;;;15.23;6.65;;;8.10;99.90;;;;;;5074677;28;20055;-90
2021/12/28 08:44:34;;;;;;;29.33;11.15;;;9.40;99.90;;;;;;5058345;28;20083;-93
2021/12/28 08:47:00;;;;;;;19.75;7.63;;;10.50;99.90;;;;;;5058923;28;20129;-87
2021/12/28 08:49:27;;;;;;;21.05;7.18;;;12.20;99.90;;;;;;5074693;28;20041;-93
2021/12/28 08:51:54;;;;;;;16.35;7.00;;;9.60;99.90;;;;;;5058025;28;20082;-91
2021/12/28 08:54:20;;;;;;;26.92;8.95;;;9.90;99.90;;;;;;5058659;28;20055;-93
2021/12/28 08:56:46;;;;;;;14.35;7.25;;;7.60;99.90;;;;;;5058803;28;20127;-93
2021/12/28 08:59:13;;;;;;;30.08;9.82;;;7.80;99.90;;;;;;5059311;28;20088;-94
2021/12/28 09:01:39;;;;;;;21.48;6.28;;;11.40;99.90;;;;;;5058910;28;20043;-90
2021/12/28 09:04:05;;;;;;;28.95;8.70;;;9.20;99.90;;;;;;5058239;28;20516;-92
2021/12/28 09:06:31;;;;;;;20.63;7.35;;;9.20;99.90;;;;;;5058409;28;20044;-92
2021/12/28 09:08:57;;;;;;;11.73;6.07;;;11.50;99.90;;;;;;5058426;28;20084;-93
2021/12/28 09:11:23;;;;;;;33.67;11.02;;;10.80;99.90;;;;;;5058988;28;20044;-93
2021/12/28 09:13:49;;;;;;;17.65;5.82;;;12.80;99.90;;;;;;5056887;28;20063;-89
2021/12/28 09:16:14;;;;;;;17.80;6.47;;;8.00;99.90;;;;;;5058098;28;20048;-91
2021/12/28 09:18:40;;;;;;;18.00;7.03;;;11.80;99.90;;;;;;5057363;28;20495;-88
2021/12/28 09:21:06;;;;;;;12.70;6.47;;;12.50;99.90;;;;;;5074646;28;20053;-91
2021/12/28 09:23:32;;;;;;;13.80;6.30;;;7.90;99.90;;;;;;5091172;28;20074;-91
2021/12/28 09:25:58;;;;;;;8.75;4.88;;;11.10;99.90;;;;;;5057581;28;20128;-91
2021/12/28 09:28:24;;;;;;;17.70;6.15;;;10.10;99.90;;;;;;5090765;28;20044;-89
2021/12/28 09:30:50;;;;;;;19.70;6.60;;;11.80;99.90;;;;;;5064456;28;20569;-91
2021/12/28 09:33:16;;;;;;;23.80;9.15;;;9.70;99.90;;;;;;5058397;28;20048;-95
2021/12/28 09:35:42;;;;;;;19.08;8.73;;;10.90;99.90;;;;;;5058331;28;20051;-92
2021/12/28 09:38:11;;;;;;;13.95;6.00;;;11.00;99.90;;;;;;5057896;28;20370;-86
2021/12/28 09:40:37;;;;;;;23.73;8.77;;;7.70;99.90;;;;;;5073748;28;20047;-91
2021/12/28 09:43:05;;;;;;;12.70;6.18;;;9.50;99.90;;;;;;5057119;28;20439;-93
2021/12/28 09:45:35;;;;;;;15.52;6.45;;;11.60;99.90;;;;;;5057719;28;20111;-94
2021/12/28 09:48:01;;;;;;;16.73;7.78;;;8.30;99.90;;;;;;5057294;28;20109;-91
2021/12/28 09:50:31;;;;;;;10.77;5.28;;;8.20;99.90;;;;;;5057168;28;20077;-94
2021/12/28 09:53:00;;;;;;;19.50;5.88;;;8.00;99.90;;;;;;5057207;28;20051;-91
2021/12/28 09:55:27;;;;;;;17.35;6.30;;;8.00;99.90;;;;;;5074323;28;20040;-92
2021/12/28 09:57:53;;;;;;;12.82;5.45;;;8.30;99.90;;;;;;5057551;28;20083;-90
2021/12/28 10:00:21;;;;;;;10.70;5.32;;;11.30;99.90;;;;;;5057206;28;20409;-90
2021/12/28 10:02:47;;;;;;;18.33;6.90;;;11.30;99.90;;;;;;5073740;28;20107;-92
2021/12/28 10:05:17;;;;;;;16.75;5.97;;;10.30;99.90;;;;;;5056958;28;20052;-91
2021/12/28 10:07:47;;;;;;;20.80;7.55;;;9.40;99.90;;;;;;5056928;28;20503;-94
2021/12/28 10:10:13;;;;;;;10.93;5.45;;;8.30;99.90;;;;;;5056749;28;20040;-89
2021/12/28 10:16:59;;;;;;;18.80;7.47;;;8.30;99.90;;;;;;5074561;28;20079;-92
2021/12/28 10:19:32;;;;;;;11.65;6.78;;;10.60;99.90;;;;;;5040116;28;20056;-91
2021/12/28 10:22:22;;;;;;;16.38;6.60;;;11.50;99.90;;;;;;5056267;28;20388;-89
2021/12/28 10:24:55;;;;;;;22.48;7.78;;;8.50;99.90;;;;;;5025472;28;20048;-91
2021/12/28 10:27:25;;;;;;;20.77;8.88;;;11.00;99.90;;;;;;5036062;28;20179;-90
2021/12/28 10:29:53;;;;;;;18.42;8.68;;;9.60;99.90;;;;;;5019905;28;20211;-90
2021/12/28 10:32:24;;;;;;;13.38;7.90;;;12.10;99.90;;;;;;5036651;28;20080;-91
2021/12/28 10:34:53;;;;;;;18.20;7.40;;;11.80;99.90;;;;;;5019775;28;20467;-90
2021/12/28 10:37:26;;;;;;;12.93;7.05;;;9.60;99.90;;;;;;5036080;28;20044;-91
2021/12/28 10:39:58;;;;;;;19.30;8.80;;;9.30;99.90;;;;;;5037363;28;20080;-90
2021/12/28 10:42:50;;;;;;;11.40;7.05;;;12.60;99.90;;;;;;5020045;28;20443;-88
2021/12/28 10:45:21;;;;;;;15.77;9.50;;;11.90;99.90;;;;;;5036972;28;20040;-92
2021/12/28 10:47:49;;;;;;;12.48;7.45;;;12.00;99.90;;;;;;5019068;28;20072;-95
2021/12/28 10:50:26;;;;;;;17.25;9.27;;;10.40;99.90;;;;;;5019730;28;20044;-92
2021/12/28 10:53:06;;;;;;;15.07;8.63;;;11.20;99.90;;;;;;5019755;28;20131;-94
2021/12/28 10:55:33;;;;;;;11.10;6.07;;;9.30;99.90;;;;;;5019319;28;20048;-89
2021/12/28 10:57:59;;;;;;;12.10;6.35;;;9.00;99.90;;;;;;5035782;28;20045;-91
2021/12/28 11:00:30;;;;;;;11.52;6.25;;;8.30;99.90;;;;;;5019699;28;20040;-90
2021/12/28 11:03:23;;;;;;;6.78;4.53;;;10.00;99.90;;;;;;5036096;28;20049;-93
2021/12/28 11:05:51;;;;;;;8.95;5.72;;;10.90;99.90;;;;;;5019762;28;20033;-95
2021/12/28 11:08:17;;;;;;;11.05;7.00;;;12.20;99.90;;;;;;5020058;28;20088;-92
2021/12/28 11:10:48;;;;;;;7.63;4.75;;;8.80;99.90;;;;;;5019948;28;20072;-93
2021/12/28 11:16:59;;;;;;;8.43;4.25;;;11.50;99.90;;;;;;5036294;28;20088;-91
2021/12/28 11:19:29;;;;;;;9.98;5.88;;;9.30;99.90;;;;;;5020126;28;20073;-90
2021/12/28 11:22:00;;;;;;;6.75;4.38;;;8.90;99.90;;;;;;5035657;28;20049;-93
2021/12/28 11:24:32;;;;;;;5.45;4.70;;;12.50;99.90;;;;;;5019648;28;20127;-92
2021/12/28 11:26:59;;;;;;;4.57;3.78;;;8.40;99.90;;;;;;5018843;28;20118;-91
2021/12/28 11:29:33;;;;;;;7.57;5.75;;;9.70;99.90;;;;;;5018790;28;20147;-91
2021/12/28 11:32:04;;;;;;;7.47;4.38;;;11.90;99.90;;;;;;5019629;28;20049;-89
2021/12/28 11:34:33;;;;;;;10.50;6.40;;;10.40;99.90;;;;;;5019128;28;20045;-92
2021/12/28 11:37:01;;;;;;;9.93;5.90;;;11.90;99.90;;;;;;5018909;28;20049;-92
2021/12/28 11:39:33;;;;;;;5.97;3.85;;;12.00;99.90;;;;;;5018940;28;20140;-92
2021/12/28 11:42:03;;;;;;;5.78;4.38;;;9.20;99.90;;;;;;5021089;28;20053;-91
2021/12/28 11:44:29;;;;;;;5.45;4.45;;;10.70;99.90;;;;;;5053248;28;20403;-88
2021/12/28 11:46:58;;;;;;;6.82;5.07;;;8.70;99.90;;;;;;5040823;28;20389;-92
2021/12/28 11:49:25;;;;;;;6.93;5.03;;;11.10;99.90;;;;;;5043546;28;20093;-89
2021/12/28 11:51:52;;;;;;;5.25;3.88;;;9.60;99.90;;;;;;5058521;28;20043;-92
2021/12/28 11:54:19;;;;;;;5.88;4.18;;;12.40;99.90;;;;;;5058426;28;20390;-90
2021/12/28 11:56:49;;;;;;;5.85;3.70;;;12.10;99.90;;;;;;5058512;28;20051;-92
2021/12/28 11:59:19;;;;;;;4.63;3.58;;;8.90;99.90;;;;;;5044767;28;20044;-90
2021/12/28 12:01:50;;;;;;;5.35;4.78;;;8.60;99.90;;;;;;5069809;28;20051;-91
2021/12/28 12:04:34;;;;;;;6.22;4.47;;;8.70;99.90;;;;;;5054587;28;20050;-87
2021/12/28 12:07:13;;;;;;;12.73;7.55;;;11.40;99.90;;;;;;5036108;28;20088;-92
2021/12/28 12:09:49;;;;;;;11.40;6.40;;;8.80;99.90;;;;;;5022564;28;20045;-89
2021/12/28 12:12:21;;;;;;;4.68;3.67;;;8.90;99.90;;;;;;5039010;28;20110;-89
2021/12/28 12:15:12;;;;;;;5.20;3.80;;;10.10;99.90;;;;;;5021792;28;20405;-94
2021/12/28 12:17:40;;;;;;;10.75;6.78;;;12.90;99.90;;;;;;5018861;28;20095;-90
2021/12/28 12:20:07;;;;;;;4.43;3.45;;;9.30;99.90;;;;;;5019187;28;20048;-91
2021/12/28 12:22:39;;;;;;;8.27;5.05;;;9.80;99.90;;;;;;5019073;28;20393;-91
2021/12/28 12:25:08;;;;;;;11.07;7.43;;;12.30;99.90;;;;;;5018521;28;20485;-90
2021/12/28 12:28:32;;;;;;;10.07;6.70;;;9.60;99.90;;;;;;5019137;28;20052;-93
2021/12/28 12:35:40;;;;;;;;;;;;;;;;;;;;;
2021/12/28 12:38:12;;;;;;;11.10;7.55;;;11.10;99.90;;;;;;4901986;29;20045;-91
2021/12/28 12:40:53;;;;;;;11.35;7.30;;;12.90;99.90;;;;;;4887853;29;20044;-93
2021/12/28 12:43:24;;;;;;;11.82;7.32;;;12.50;99.90;;;;;;4903111;29;20572;-92
2021/12/28 12:45:50;;;;;;;5.65;3.90;;;12.90;99.90;;;;;;4902391;29;20094;-89
2021/12/28 12:48:36;;;;;;;5.95;4.63;;;10.20;99.90;;;;;;4886706;29;20489;-92
2021/12/28 12:51:21;;;;;;;7.70;5.17;;;13.00;99.90;;;;;;4922823;28;20430;-90
2021/12/28 12:53:50;;;;;;;11.57;7.28;;;12.60;99.90;;;;;;4962952;28;20096;-91
2021/12/28 12:56:20;;;;;;;13.25;8.68;;;12.10;99.90;;;;;;4978846;28;20116;-92
2021/12/28 12:58:48;;;;;;;14.02;8.93;;;9.30;99.90;;;;;;4979253;28;20082;-93